createdAt,value
2023-03-24T00:00:18.747Z,13.67
2023-03-24T00:02:52.419Z,13.69
2023-03-24T00:05:25.349Z,13.81
2023-03-24T00:08:02.062Z,13.88
2023-03-24T00:10:37.068Z,13.77
2023-03-24T00:13:10.234Z,13.76
2023-03-24T00:15:43.211Z,13.70
2023-03-24T00:18:16.145Z,13.77
2023-03-24T00:20:49.298Z,13.91
2023-03-24T00:23:22.531Z,13.91
2023-03-24T00:26:04.698Z,13.96
2023-03-24T00:28:39.147Z,14.01
2023-03-24T00:31:14.764Z,13.87
2023-03-24T00:33:51.424Z,14.06
2023-03-24T00:36:26.054Z,13.99
2023-03-24T00:39:00.363Z,13.98
2023-03-24T00:41:35.513Z,13.96
2023-03-24T00:44:08.404Z,13.93
2023-03-24T00:46:46.110Z,13.96
2023-03-24T00:49:26.194Z,14.01
2023-03-24T00:51:59.230Z,13.89
2023-03-24T00:54:32.148Z,13.81
2023-03-24T00:57:07.345Z,13.78
2023-03-24T00:59:49.176Z,13.68
2023-03-24T01:02:24.943Z,13.52
2023-03-24T01:05:00.051Z,13.55
2023-03-24T01:07:33.653Z,13.58
2023-03-24T01:10:08.584Z,13.69
2023-03-24T01:12:43.101Z,13.62
2023-03-24T01:15:18.656Z,13.66
2023-03-24T01:17:53.424Z,13.58
2023-03-24T01:20:27.018Z,13.55
2023-03-24T01:23:06.343Z,13.63
2023-03-24T01:25:48.196Z,13.66
2023-03-24T01:28:25.127Z,13.63
2023-03-24T01:30:58.720Z,13.60
2023-03-24T01:33:35.857Z,13.66
2023-03-24T01:36:09.445Z,13.70
2023-03-24T01:38:42.491Z,13.71
2023-03-24T01:41:15.653Z,13.74
2023-03-24T01:43:50.190Z,13.69
2023-03-24T01:46:24.379Z,13.76
2023-03-24T01:49:01.247Z,13.75
2023-03-24T01:51:37.663Z,13.79
2023-03-24T01:54:16.183Z,13.71
2023-03-24T01:56:54.997Z,13.81
2023-03-24T01:59:33.093Z,13.79
2023-03-24T02:02:22.070Z,13.88
2023-03-24T02:05:03.489Z,13.75
2023-03-24T02:07:52.478Z,13.71
2023-03-24T02:10:26.494Z,13.61
2023-03-24T02:12:59.383Z,13.63
2023-03-24T02:15:36.993Z,13.61
2023-03-24T02:18:19.177Z,13.64
2023-03-24T02:21:52.320Z,13.61
2023-03-24T02:24:59.134Z,13.59
2023-03-24T02:27:57.648Z,13.61
2023-03-24T02:30:48.040Z,13.78
2023-03-24T02:33:47.869Z,13.79
2023-03-24T02:36:42.826Z,13.68
2023-03-24T02:39:38.317Z,13.82
2023-03-24T02:42:22.106Z,13.91
2023-03-24T02:45:05.949Z,13.95
2023-03-24T02:47:47.320Z,14.03
2023-03-24T02:50:30.034Z,13.99
2023-03-24T02:53:13.057Z,13.96
2023-03-24T02:56:12.751Z,13.93
2023-03-24T02:58:50.086Z,13.93
2023-03-24T03:01:31.787Z,13.90
2023-03-24T03:04:20.075Z,13.90
2023-03-24T03:06:58.813Z,13.83
2023-03-24T03:09:32.044Z,13.89
2023-03-24T03:12:11.145Z,13.82
2023-03-24T03:14:49.460Z,13.78
2023-03-24T03:17:28.499Z,13.73
2023-03-24T03:20:08.485Z,13.78
2023-03-24T03:22:46.755Z,13.74
2023-03-24T03:25:23.943Z,13.77
2023-03-24T03:28:02.315Z,13.79
2023-03-24T03:30:39.093Z,13.71
2023-03-24T03:33:18.224Z,13.82
2023-03-24T03:35:55.487Z,13.89
2023-03-24T03:38:36.837Z,13.87
2023-03-24T03:41:10.345Z,13.82
2023-03-24T03:43:47.143Z,13.88
2023-03-24T03:46:20.894Z,13.94
2023-03-24T03:48:55.533Z,13.88
2023-03-24T03:51:29.049Z,13.88
2023-03-24T03:54:06.934Z,13.84
2023-03-24T03:56:41.200Z,13.84
2023-03-24T03:59:28.579Z,13.87
2023-03-24T04:02:13.964Z,13.94
2023-03-24T04:05:14.223Z,13.85
2023-03-24T04:08:08.409Z,13.85
2023-03-24T04:11:32.783Z,13.97
2023-03-24T04:14:49.946Z,14.09
2023-03-24T04:18:01.955Z,14.00
2023-03-24T04:21:21.254Z,13.96
2023-03-24T04:24:03.625Z,13.99
2023-03-24T04:26:46.406Z,14.05
2023-03-24T04:29:30.044Z,14.12
2023-03-24T04:32:11.259Z,14.12
2023-03-24T04:34:50.874Z,14.05
2023-03-24T04:37:51.325Z,14.15
2023-03-24T04:40:33.356Z,14.11
2023-03-24T04:43:09.499Z,14.08
2023-03-24T04:45:42.946Z,14.13
2023-03-24T04:48:48.331Z,14.14
2023-03-24T04:51:29.344Z,14.13
2023-03-24T04:54:24.374Z,14.12
2023-03-24T04:57:02.984Z,14.19
2023-03-24T04:59:56.843Z,14.22
2023-03-24T05:02:29.779Z,14.23
2023-03-24T05:05:12.868Z,14.23
2023-03-24T05:07:50.540Z,14.33
2023-03-24T05:10:23.657Z,14.37
2023-03-24T05:13:00.739Z,14.35
2023-03-24T05:15:54.346Z,14.55
2023-03-24T05:18:42.998Z,14.67
2023-03-24T05:21:17.430Z,14.77
2023-03-24T05:23:50.450Z,14.82
2023-03-24T05:26:23.434Z,14.87
2023-03-24T05:29:09.891Z,14.78
2023-03-24T05:31:44.753Z,14.83
2023-03-24T05:34:22.828Z,14.70
2023-03-24T05:37:13.288Z,14.86
2023-03-24T05:39:46.560Z,14.99
2023-03-24T05:42:35.017Z,15.04
2023-03-24T05:45:11.714Z,14.93
2023-03-24T05:47:45.332Z,14.82
2023-03-24T05:50:18.896Z,14.77
2023-03-24T05:52:53.660Z,14.89
2023-03-24T05:55:41.833Z,14.74
2023-03-24T05:58:35.367Z,14.57
2023-03-24T06:01:10.294Z,14.53
2023-03-24T06:03:44.140Z,14.44
2023-03-24T06:06:20.504Z,14.29
2023-03-24T06:08:58.476Z,14.28
2023-03-24T06:11:32.609Z,14.31
2023-03-24T06:14:11.233Z,14.09
2023-03-24T06:16:59.356Z,13.89
2023-03-24T06:19:34.022Z,13.82
2023-03-24T06:22:22.772Z,13.61
2023-03-24T06:24:58.817Z,13.51
2023-03-24T06:27:33.809Z,13.56
2023-03-24T06:30:08.680Z,13.47
2023-03-24T06:32:42.126Z,13.48
2023-03-24T06:35:15.848Z,13.32
2023-03-24T06:38:04.643Z,13.27
2023-03-24T06:40:39.045Z,13.12
2023-03-24T06:43:13.177Z,12.91
2023-03-24T06:45:48.671Z,12.87
2023-03-24T06:48:28.325Z,12.77
2023-03-24T06:51:08.815Z,12.78
2023-03-24T06:53:44.018Z,12.59
2023-03-24T06:56:21.117Z,12.63
2023-03-24T06:59:00.050Z,12.77
2023-03-24T07:01:38.147Z,12.89
2023-03-24T07:04:20.916Z,12.91
2023-03-24T07:07:30.861Z,12.90
2023-03-24T07:10:21.942Z,13.09
2023-03-24T07:12:57.550Z,13.16
2023-03-24T07:15:30.890Z,13.08
2023-03-24T07:18:04.076Z,13.18
2023-03-24T07:20:46.894Z,13.09
2023-03-24T07:23:22.479Z,13.12
2023-03-24T07:26:03.048Z,13.09
2023-03-24T07:28:56.001Z,13.07
2023-03-24T07:31:40.902Z,13.18
2023-03-24T07:34:16.863Z,13.25
2023-03-24T07:36:49.966Z,13.23
2023-03-24T07:39:23.353Z,13.22
2023-03-24T07:41:57.063Z,13.23
2023-03-24T07:44:44.575Z,13.30
2023-03-24T07:47:18.829Z,13.26
2023-03-24T07:49:53.344Z,13.37
2023-03-24T07:52:26.473Z,13.36
2023-03-24T07:55:01.589Z,13.36
2023-03-24T07:57:52.508Z,13.43
2023-03-24T08:00:27.056Z,13.44
2023-03-24T08:03:15.644Z,13.63
2023-03-24T08:05:55.225Z,13.64
2023-03-24T08:08:38.094Z,13.56
2023-03-24T08:11:10.838Z,13.63
2023-03-24T08:13:43.967Z,13.67
2023-03-24T08:16:18.179Z,13.79
2023-03-24T08:18:51.083Z,13.85
2023-03-24T08:21:24.128Z,13.96
2023-03-24T08:23:56.993Z,13.96
2023-03-24T08:26:31.162Z,13.81
2023-03-24T08:29:04.596Z,13.93
2023-03-24T08:31:39.284Z,13.77
2023-03-24T08:34:12.417Z,13.75
2023-03-24T08:36:45.285Z,13.96
2023-03-24T08:39:18.300Z,13.79
2023-03-24T08:41:51.498Z,13.73
2023-03-24T08:44:24.481Z,13.72
2023-03-24T08:46:58.653Z,13.67
2023-03-24T08:49:31.484Z,13.73
2023-03-24T08:52:05.148Z,13.80
2023-03-24T08:54:38.162Z,13.88
2023-03-24T08:57:10.928Z,14.03
2023-03-24T08:59:44.037Z,14.06
2023-03-24T09:02:18.799Z,14.10
2023-03-24T09:04:54.600Z,14.29
2023-03-24T09:07:41.279Z,14.18
2023-03-24T09:10:48.345Z,14.35
2023-03-24T09:13:29.576Z,14.35
2023-03-24T09:16:35.365Z,14.40
2023-03-24T09:19:39.207Z,14.27
2023-03-24T09:22:48.412Z,14.46
2023-03-24T09:25:56.347Z,14.57
2023-03-24T09:28:57.751Z,14.92
2023-03-24T09:32:06.452Z,15.05
2023-03-24T09:35:10.575Z,14.89
2023-03-24T09:38:12.634Z,15.04
2023-03-24T09:41:34.380Z,14.74
2023-03-24T09:44:41.259Z,14.85
2023-03-24T09:47:41.296Z,14.76
2023-03-24T09:50:33.310Z,14.81
2023-03-24T09:53:21.625Z,14.74
2023-03-24T09:56:18.305Z,14.80
2023-03-24T09:59:19.293Z,14.72
2023-03-24T10:02:07.315Z,14.77
2023-03-24T10:04:48.404Z,14.65
2023-03-24T10:07:45.441Z,14.69
2023-03-24T10:10:42.408Z,14.61
2023-03-24T10:13:40.482Z,14.65
2023-03-24T10:16:29.534Z,14.61
2023-03-24T10:19:25.549Z,14.68
2023-03-24T10:22:20.308Z,14.74
2023-03-24T10:25:20.480Z,14.87
2023-03-24T10:28:06.566Z,14.90
2023-03-24T10:30:57.531Z,15.09
2023-03-24T10:33:39.408Z,15.19
2023-03-24T10:36:29.284Z,14.90
2023-03-24T10:39:19.003Z,14.70
2023-03-24T10:42:12.318Z,14.99
2023-03-24T10:44:54.567Z,14.93
2023-03-24T10:47:43.344Z,15.33
2023-03-24T10:50:50.479Z,15.14
2023-03-24T10:53:52.278Z,15.24
2023-03-24T10:57:02.407Z,15.07
2023-03-24T10:59:55.308Z,15.16
2023-03-24T11:02:31.717Z,15.11
2023-03-24T11:05:16.940Z,15.14
2023-03-24T11:07:52.065Z,15.23
2023-03-24T11:10:26.552Z,15.25
2023-03-24T11:13:05.312Z,15.41
2023-03-24T11:15:53.285Z,15.11
2023-03-24T11:18:26.229Z,15.14
2023-03-24T11:21:01.017Z,14.94
2023-03-24T11:23:35.628Z,14.79
2023-03-24T11:26:14.852Z,14.65
2023-03-24T11:28:52.916Z,15.26
2023-03-24T11:31:30.884Z,15.10
2023-03-24T11:34:09.537Z,15.10
2023-03-24T11:36:47.562Z,15.18
2023-03-24T11:39:23.937Z,15.21
2023-03-24T11:42:15.535Z,15.28
2023-03-24T11:44:51.342Z,15.00
2023-03-24T11:47:32.090Z,15.20
2023-03-24T11:50:19.055Z,14.90
2023-03-24T11:52:55.929Z,14.83
2023-03-24T11:55:35.783Z,15.06
2023-03-24T11:58:17.360Z,15.01
2023-03-24T12:00:56.109Z,15.23
2023-03-24T12:03:56.849Z,15.23
2023-03-24T12:06:42.952Z,15.22
2023-03-24T12:09:23.736Z,15.26
2023-03-24T12:12:13.709Z,15.14
2023-03-24T12:15:07.827Z,14.97
2023-03-24T12:17:54.663Z,14.84
2023-03-24T12:20:34.160Z,14.56
2023-03-24T12:23:13.829Z,14.73
2023-03-24T12:26:12.187Z,14.47
2023-03-24T12:28:55.960Z,14.32
2023-03-24T12:31:47.528Z,14.00
2023-03-24T12:34:57.307Z,14.06
2023-03-24T12:37:39.227Z,13.91
2023-03-24T12:40:51.367Z,14.48
2023-03-24T12:43:36.987Z,14.90
2023-03-24T12:46:25.142Z,14.85
2023-03-24T12:49:18.567Z,14.78
2023-03-24T12:52:15.059Z,14.53
2023-03-24T12:55:00.807Z,14.59
2023-03-24T12:57:38.891Z,14.41
2023-03-24T13:00:23.234Z,14.28
2023-03-24T13:02:59.447Z,13.50
2023-03-24T13:05:36.439Z,13.30
2023-03-24T13:08:17.658Z,13.10
2023-03-24T13:10:55.712Z,12.94
2023-03-24T13:13:32.772Z,12.58
2023-03-24T13:16:10.733Z,12.53
2023-03-24T13:18:48.322Z,12.51
2023-03-24T13:21:23.511Z,12.69
2023-03-24T13:24:00.366Z,12.71
2023-03-24T13:26:40.110Z,12.78
2023-03-24T13:29:38.431Z,12.84
2023-03-24T13:32:30.145Z,12.99
2023-03-24T13:35:12.874Z,13.14
2023-03-24T13:37:49.765Z,13.09
2023-03-24T13:40:26.238Z,13.25
2023-03-24T13:43:02.055Z,13.16
2023-03-24T13:45:41.718Z,13.05
2023-03-24T13:48:25.167Z,13.41
2023-03-24T13:51:01.377Z,13.55
2023-03-24T13:53:39.569Z,13.56
2023-03-24T13:56:22.706Z,13.14
2023-03-24T13:59:26.037Z,13.61
2023-03-24T14:02:23.691Z,13.29
2023-03-24T14:05:07.818Z,13.23
2023-03-24T14:07:50.031Z,13.50
2023-03-24T14:10:45.839Z,13.82
2023-03-24T14:13:37.053Z,13.66
2023-03-24T14:16:37.524Z,13.83
2023-03-24T14:19:24.510Z,13.86
2023-03-24T14:22:11.907Z,13.75
2023-03-24T14:24:47.111Z,13.74
2023-03-24T14:27:35.953Z,13.89
2023-03-24T14:30:20.344Z,14.20
2023-03-24T14:32:57.097Z,14.03
2023-03-24T14:35:37.155Z,14.22
2023-03-24T14:38:23.547Z,14.06
2023-03-24T14:40:59.368Z,14.09
2023-03-24T14:43:58.698Z,14.37
2023-03-24T14:46:43.049Z,14.71
2023-03-24T14:49:24.508Z,15.21
2023-03-24T14:52:10.717Z,15.62
2023-03-24T14:54:47.388Z,15.00
2023-03-24T14:57:24.858Z,15.09
2023-03-24T15:00:11.039Z,14.49
2023-03-24T15:02:49.312Z,14.51
2023-03-24T15:05:26.194Z,14.56
2023-03-24T15:08:13.820Z,14.13
2023-03-24T15:10:50.983Z,14.19
2023-03-24T15:13:32.395Z,14.13
2023-03-24T15:16:18.243Z,14.14
2023-03-24T15:19:01.366Z,14.18
2023-03-24T15:21:37.462Z,14.22
2023-03-24T15:24:28.302Z,14.05
2023-03-24T15:27:34.525Z,14.17
2023-03-24T15:30:15.110Z,14.02
2023-03-24T15:32:50.525Z,14.07
2023-03-24T15:35:24.835Z,14.11
2023-03-24T15:37:58.313Z,13.97
2023-03-24T15:40:40.557Z,13.99
2023-03-24T15:43:20.349Z,13.90
2023-03-24T15:46:04.712Z,13.97
2023-03-24T15:48:47.690Z,13.92
2023-03-24T15:51:21.069Z,13.45
2023-03-24T15:53:58.250Z,13.58
2023-03-24T15:56:34.312Z,13.39
2023-03-24T15:59:16.219Z,13.31
2023-03-24T16:01:50.326Z,13.34
2023-03-24T16:04:24.647Z,12.96
2023-03-24T16:06:58.630Z,13.11
2023-03-24T16:09:39.075Z,13.08
2023-03-24T16:12:12.585Z,13.05
2023-03-24T16:14:45.851Z,13.05
2023-03-24T16:17:18.861Z,12.57
2023-03-24T16:19:53.099Z,12.67
2023-03-24T16:22:26.168Z,12.58
2023-03-24T16:24:59.060Z,12.60
2023-03-24T16:27:31.923Z,12.34
2023-03-24T16:30:18.783Z,12.32
2023-03-24T16:32:51.672Z,12.43
2023-03-24T16:35:26.968Z,12.38
2023-03-24T16:37:59.956Z,12.36
2023-03-24T16:40:38.539Z,12.28
2023-03-24T16:43:11.541Z,12.38
2023-03-24T16:45:44.906Z,12.32
2023-03-24T16:48:18.601Z,12.29
2023-03-24T16:50:53.629Z,12.18
2023-03-24T16:53:26.491Z,12.20
2023-03-24T16:55:59.467Z,12.08
2023-03-24T16:58:32.544Z,12.14
2023-03-24T17:01:26.763Z,12.19
2023-03-24T17:04:01.882Z,12.18
2023-03-24T17:06:37.945Z,12.19
2023-03-24T17:09:12.615Z,12.09
2023-03-24T17:11:49.860Z,12.14
2023-03-24T17:14:23.094Z,12.13
2023-03-24T17:16:56.043Z,12.03
2023-03-24T17:19:28.952Z,12.02
2023-03-24T17:22:05.555Z,12.02
2023-03-24T17:24:41.734Z,11.77
2023-03-24T17:27:18.823Z,11.99
2023-03-24T17:29:51.734Z,11.64
2023-03-24T17:32:31.935Z,11.67
2023-03-24T17:35:05.379Z,11.63
2023-03-24T17:37:39.759Z,11.55
2023-03-24T17:40:14.138Z,11.55
2023-03-24T17:42:47.874Z,11.45
2023-03-24T17:45:21.117Z,11.54
2023-03-24T17:47:55.002Z,11.52
2023-03-24T17:50:29.965Z,11.40
2023-03-24T17:53:04.194Z,11.40
2023-03-24T17:55:37.061Z,11.35
2023-03-24T17:58:10.215Z,11.44
2023-03-24T18:00:43.353Z,11.24
2023-03-24T18:03:16.857Z,11.24
2023-03-24T18:05:50.075Z,11.32
2023-03-24T18:08:24.312Z,11.08
2023-03-24T18:11:04.663Z,11.02
2023-03-24T18:13:38.153Z,11.16
2023-03-24T18:16:21.187Z,10.96
2023-03-24T18:18:55.040Z,10.99
2023-03-24T18:21:28.535Z,10.95
2023-03-24T18:24:03.177Z,10.94
2023-03-24T18:26:36.134Z,10.91
2023-03-24T18:29:08.996Z,10.93
2023-03-24T18:31:41.954Z,10.88
2023-03-24T18:34:14.976Z,10.82
2023-03-24T18:36:48.386Z,10.80
2023-03-24T18:39:22.759Z,10.71
2023-03-24T18:41:55.981Z,10.69
2023-03-24T18:44:28.840Z,10.58
2023-03-24T18:47:01.943Z,10.53
2023-03-24T18:49:34.726Z,10.57
2023-03-24T18:52:09.612Z,10.60
2023-03-24T18:54:44.053Z,10.63
2023-03-24T18:57:17.436Z,10.70
2023-03-24T18:59:50.663Z,10.63
2023-03-24T19:02:23.571Z,10.65
2023-03-24T19:04:56.472Z,10.59
2023-03-24T19:07:29.416Z,10.63
2023-03-24T19:10:05.366Z,10.61
2023-03-24T19:12:38.453Z,10.62
2023-03-24T19:15:13.673Z,10.55
2023-03-24T19:17:46.645Z,10.73
2023-03-24T19:20:19.523Z,10.66
2023-03-24T19:22:52.692Z,10.57
2023-03-24T19:25:27.010Z,10.60
2023-03-24T19:27:59.808Z,10.59
2023-03-24T19:30:32.645Z,10.61
2023-03-24T19:33:05.671Z,10.65
2023-03-24T19:35:38.578Z,10.54
2023-03-24T19:38:11.829Z,10.56
2023-03-24T19:40:46.544Z,10.47
2023-03-24T19:43:19.492Z,10.49
2023-03-24T19:45:52.510Z,10.33
2023-03-24T19:48:25.438Z,10.28
2023-03-24T19:50:58.500Z,10.36
2023-03-24T19:53:31.792Z,10.33
2023-03-24T19:56:06.783Z,10.49
2023-03-24T19:58:39.812Z,10.54
2023-03-24T20:01:13.105Z,10.33
2023-03-24T20:03:46.367Z,10.24
2023-03-24T20:06:19.901Z,10.32
2023-03-24T20:08:52.976Z,10.19
2023-03-24T20:11:27.363Z,10.10
2023-03-24T20:14:00.829Z,10.06
2023-03-24T20:16:34.087Z,10.14
2023-03-24T20:19:06.896Z,10.39
2023-03-24T20:21:39.708Z,10.11
2023-03-24T20:24:14.750Z,10.03
2023-03-24T20:26:49.148Z,10.01
2023-03-24T20:29:22.119Z,10.00
2023-03-24T20:31:55.428Z,9.88
2023-03-24T20:34:28.781Z,9.89
2023-03-24T20:37:01.669Z,10.07
2023-03-24T20:39:34.539Z,9.98
2023-03-24T20:42:08.652Z,9.87
2023-03-24T20:44:41.788Z,9.81
2023-03-24T20:47:14.620Z,9.81
2023-03-24T20:49:47.428Z,9.77
2023-03-24T20:52:23.093Z,9.80
2023-03-24T20:54:56.828Z,9.84
2023-03-24T20:57:31.653Z,9.77
2023-03-24T21:00:13.448Z,9.79
2023-03-24T21:02:46.793Z,9.88
2023-03-24T21:05:19.656Z,9.82
2023-03-24T21:07:52.483Z,9.92
2023-03-24T21:10:25.389Z,10.04
2023-03-24T21:12:59.557Z,10.03
2023-03-24T21:15:32.759Z,9.89
2023-03-24T21:18:06.827Z,10.05
2023-03-24T21:20:42.417Z,10.37
2023-03-24T21:23:18.513Z,10.38
2023-03-24T21:25:52.215Z,10.34
2023-03-24T21:28:30.372Z,10.35
2023-03-24T21:31:09.324Z,10.11
2023-03-24T21:33:43.515Z,10.43
2023-03-24T21:36:17.310Z,10.31
2023-03-24T21:38:52.386Z,10.37
2023-03-24T21:41:25.482Z,10.32
2023-03-24T21:44:00.456Z,10.26
2023-03-24T21:46:33.469Z,10.23
2023-03-24T21:49:06.509Z,10.30
2023-03-24T21:51:42.825Z,10.25
2023-03-24T21:54:16.230Z,9.71
2023-03-24T21:56:49.115Z,9.58
2023-03-24T21:59:23.308Z,9.29
2023-03-24T22:01:57.386Z,9.21
2023-03-24T22:04:30.135Z,9.27
2023-03-24T22:07:06.408Z,9.19
2023-03-24T22:09:39.218Z,9.11
2023-03-24T22:12:12.183Z,9.10
2023-03-24T22:14:47.687Z,9.16
2023-03-24T22:17:20.819Z,9.34
2023-03-24T22:19:53.852Z,9.31
2023-03-24T22:22:27.359Z,9.41
2023-03-24T22:25:00.662Z,9.22
2023-03-24T22:27:34.026Z,9.18
2023-03-24T22:30:11.122Z,9.10
2023-03-24T22:32:43.986Z,9.07
2023-03-24T22:35:17.245Z,8.92
2023-03-24T22:37:50.125Z,8.77
2023-03-24T22:40:23.018Z,8.74
2023-03-24T22:42:55.918Z,8.72
2023-03-24T22:45:30.617Z,8.78
2023-03-24T22:48:03.679Z,8.70
2023-03-24T22:50:36.650Z,8.69
2023-03-24T22:53:09.916Z,8.77
2023-03-24T22:55:44.778Z,8.79
2023-03-24T22:58:17.939Z,8.70
2023-03-24T23:00:56.003Z,8.78
2023-03-24T23:03:29.299Z,8.67
2023-03-24T23:06:03.267Z,8.72
2023-03-24T23:08:37.659Z,8.74
2023-03-24T23:11:12.357Z,8.60
2023-03-24T23:13:46.801Z,8.64
2023-03-24T23:16:22.208Z,8.59
2023-03-24T23:18:56.050Z,8.60
2023-03-24T23:21:29.841Z,8.66
2023-03-24T23:24:03.270Z,8.50
2023-03-24T23:26:36.772Z,8.50
2023-03-24T23:29:11.465Z,8.38
2023-03-24T23:31:45.824Z,8.46
2023-03-24T23:34:19.392Z,8.46
2023-03-24T23:36:52.670Z,8.57
2023-03-24T23:39:26.618Z,8.31
2023-03-24T23:42:00.031Z,8.40
2023-03-24T23:44:33.175Z,8.40
2023-03-24T23:47:07.465Z,8.61
2023-03-24T23:49:42.319Z,8.38
2023-03-24T23:52:15.095Z,8.40
2023-03-24T23:54:51.340Z,8.44
2023-03-24T23:57:24.208Z,8.48
2023-03-24T23:59:57.146Z,8.63
